Time;durP1;ratioP1;P1;durP2;ratioP2;P2;SDS_P1;SDS_P2;PMS_P1;PMS_P2;Temp;Humidity;BMP_temperature;BMP_pressure;BME280_temperature;BME280_humidity;BME280_pressure;Samples;Min_cycle;Max_cycle;Signal;HPM_P1;HPM_P2
2023/06/25 00:01:09;;;;;;;;;;;27.80;68.50;;;;;;7411594;19;19914;-79
2023/06/25 00:03:37;;;;;;;;;;;27.80;68.40;;;;;;7395150;19;20480;-78
2023/06/25 00:06:06;;;;;;;;;;;27.80;68.60;;;;;;7388615;19;20254;-79
2023/06/25 00:08:34;;;;;;;;;;;27.70;68.90;;;;;;7387923;19;19911;-77
2023/06/25 00:11:05;;;;;;;;;;;27.70;68.60;;;;;;7382208;19;20246;-75
2023/06/25 00:13:33;;;;;;;;;;;27.70;68.60;;;;;;7382041;19;19919;-75
2023/06/25 00:16:02;;;;;;;;;;;27.60;68.60;;;;;;7403449;19;19928;-75
2023/06/25 00:18:33;;;;;;;;;;;27.60;68.70;;;;;;7380961;19;19915;-75
2023/06/25 00:21:01;;;;;;;;;;;27.50;68.90;;;;;;7381417;19;19911;-75
2023/06/25 00:23:29;;;;;;;;;;;27.50;69.10;;;;;;7382800;19;19914;-75
2023/06/25 00:25:58;;;;;;;;;;;27.40;69.10;;;;;;7384345;19;19911;-75
2023/06/25 00:28:29;;;;;;;;;;;27.40;69.30;;;;;;7385136;19;19967;-75
2023/06/25 00:30:57;;;;;;;;;;;27.30;69.70;;;;;;7403443;19;20214;-76
2023/06/25 00:33:26;;;;;;;;;;;27.30;70.10;;;;;;7382604;19;19926;-75
2023/06/25 00:36:06;;;;;;;;;;;27.30;70.30;;;;;;7381657;19;19903;-75
2023/06/25 00:38:35;;;;;;;8.45;5.47;;;27.30;70.30;;;;;;7380125;19;19933;-76
2023/06/25 00:41:04;;;;;;;10.75;5.15;;;27.30;70.50;;;;;;7382397;19;20003;-77
2023/06/25 00:43:35;;;;;;;;;;;27.30;70.60;;;;;;7385062;19;20002;-74
2023/06/25 00:46:04;;;;;;;;;;;27.30;70.50;;;;;;7417608;19;19907;-75
2023/06/25 00:48:32;;;;;;;;;;;27.20;70.20;;;;;;7381412;19;19911;-75
2023/06/25 00:51:01;;;;;;;;;;;27.00;70.60;;;;;;7380349;19;20309;-75
2023/06/25 00:53:34;;;;;;;;;;;27.10;70.80;;;;;;7380084;19;19974;-75
2023/06/25 00:56:02;;;;;;;;;;;27.10;71.00;;;;;;7381298;19;19917;-76
2023/06/25 00:58:37;;;;;;;;;;;27.10;71.10;;;;;;7380787;19;19933;-76
2023/06/25 01:01:11;;;;;;;;;;;27.10;71.30;;;;;;7401997;19;19927;-76
2023/06/25 01:03:40;;;;;;;;;;;27.10;71.20;;;;;;7379256;19;19911;-76
2023/06/25 01:06:12;;;;;;;;;;;27.10;71.20;;;;;;7380129;19;19907;-75
2023/06/25 01:08:41;;;;;;;;;;;27.00;71.30;;;;;;7380371;19;19914;-75
2023/06/25 01:11:10;;;;;;;;;;;27.00;71.30;;;;;;7379299;19;20259;-75
2023/06/25 01:13:38;;;;;;;;;;;27.00;71.10;;;;;;7380429;19;20123;-75
2023/06/25 01:16:09;;;;;;;;;;;27.00;71.10;;;;;;7401683;19;19923;-75
2023/06/25 01:18:39;;;;;;;;;;;27.00;71.30;;;;;;7379361;19;19914;-74
2023/06/25 01:21:08;;;;;;;;;;;27.00;71.50;;;;;;7379792;19;19971;-75
2023/06/25 01:23:39;;;;;;;;;;;26.90;72.30;;;;;;7380038;19;19952;-75
2023/06/25 01:26:07;;;;;;;;;;;26.90;71.60;;;;;;7379177;19;19974;-75
2023/06/25 01:28:37;;;;;;;;;;;26.90;71.60;;;;;;7378406;19;19919;-75
2023/06/25 01:31:05;;;;;;;;;;;26.90;71.60;;;;;;7402661;19;19924;-74
2023/06/25 01:33:34;;;;;;;;;;;26.90;72.00;;;;;;7381597;19;19910;-75
2023/06/25 01:36:02;;;;;;;;;;;26.80;72.50;;;;;;7383011;19;20279;-77
2023/06/25 01:38:31;;;;;;;;;;;26.80;72.50;;;;;;7380488;19;20317;-74
2023/06/25 01:41:02;;;;;;;;;;;26.80;72.00;;;;;;7380120;19;20123;-74
2023/06/25 01:43:30;;;;;;;;;;;26.80;71.80;;;;;;7379509;19;19922;-75
2023/06/25 01:45:59;;;;;;;;;;;26.80;72.00;;;;;;7400289;19;19919;-75
2023/06/25 01:48:27;;;;;;;;;;;26.70;72.00;;;;;;7381799;19;20211;-74
2023/06/25 01:50:56;;;;;;;;;;;26.70;72.10;;;;;;7382196;19;19914;-75
2023/06/25 01:53:25;;;;;;;;;;;26.60;72.10;;;;;;7381324;19;19907;-75
2023/06/25 01:55:54;;;;;;;;;;;26.60;72.30;;;;;;7379471;19;19915;-75
2023/06/25 01:58:25;;;;;;;;;;;26.60;72.40;;;;;;7382592;19;20188;-75
2023/06/25 02:00:53;;;;;;;;;;;26.50;72.50;;;;;;7400225;19;19924;-75
2023/06/25 02:03:22;;;;;;;;;;;26.40;72.50;;;;;;7377951;19;19911;-75
2023/06/25 02:05:50;;;;;;;;;;;26.40;72.70;;;;;;7378621;19;19907;-75
2023/06/25 02:08:18;;;;;;;;;;;26.30;72.60;;;;;;7378917;19;20187;-75
2023/06/25 02:10:47;;;;;;;;;;;26.20;72.40;;;;;;7377773;19;19978;-75
2023/06/25 02:13:16;;;;;;;;;;;26.10;72.70;;;;;;7400123;19;19971;-76
2023/06/25 02:15:47;;;;;;;;;;;26.10;73.10;;;;;;7380317;19;19947;-75
2023/06/25 02:18:18;;;;;;;10.05;5.43;;;26.10;73.50;;;;;;7384556;19;19931;-76
2023/06/25 02:20:46;;;;;;;7.75;5.00;;;26.00;73.40;;;;;;7385076;19;20006;-75
2023/06/25 02:23:15;;;;;;;;;;;26.00;73.70;;;;;;7385491;19;20210;-75
2023/06/25 02:25:44;;;;;;;;;;;26.00;73.60;;;;;;7385915;19;20013;-75
2023/06/25 02:28:13;;;;;;;;;;;26.00;73.50;;;;;;7404832;19;19947;-75
2023/06/25 02:30:42;;;;;;;;;;;26.00;73.40;;;;;;7383465;19;19987;-75
2023/06/25 02:33:13;;;;;;;;;;;26.00;73.70;;;;;;7384996;19;20202;-75
2023/06/25 02:35:43;;;;;;;;;;;26.10;73.30;;;;;;7384074;19;20480;-75
2023/06/25 02:38:11;;;;;;;;;;;26.10;73.50;;;;;;7389007;19;19920;-75
2023/06/25 02:40:41;;;;;;;;;;;26.10;73.70;;;;;;7388745;19;19911;-75
2023/06/25 02:43:10;;;;;;;;;;;26.00;73.60;;;;;;7407359;19;19907;-75
2023/06/25 02:45:38;;;;;;;;;;;26.10;73.30;;;;;;7384263;19;20756;-75
2023/06/25 02:48:07;;;;;;;;;;;26.00;73.40;;;;;;7385573;19;19925;-75
2023/06/25 02:50:38;;;;;;;;;;;26.00;73.70;;;;;;7385368;19;19923;-75
2023/06/25 02:53:06;;;;;;;;;;;25.90;73.80;;;;;;7387622;19;19959;-75
2023/06/25 02:55:35;;;;;;;;;;;25.90;73.60;;;;;;7390366;19;19948;-75
2023/06/25 02:58:03;;;;;;;;;;;25.90;73.40;;;;;;7411855;19;19930;-75
2023/06/25 03:00:31;;;;;;;;;;;25.90;73.20;;;;;;7387012;19;19928;-75
2023/06/25 03:03:00;;;;;;;;;;;25.90;73.30;;;;;;7385677;19;20238;-75
2023/06/25 03:05:28;;;;;;;;;;;25.90;73.20;;;;;;7385488;19;19915;-75
2023/06/25 03:08:00;;;;;;;;;;;25.80;73.50;;;;;;7385266;19;19915;-75
2023/06/25 03:10:33;;;;;;;;;;;25.80;73.90;;;;;;7385103;19;19924;-75
2023/06/25 03:13:01;;;;;;;;;;;25.80;74.80;;;;;;7406847;19;19917;-75
2023/06/25 03:15:30;;;;;;;;;;;25.70;73.80;;;;;;7384628;19;19978;-75
2023/06/25 03:17:58;;;;;;;;;;;25.70;73.80;;;;;;7384700;19;20152;-75
2023/06/25 03:20:26;;;;;;;;;;;25.70;73.70;;;;;;7384062;19;19958;-75
2023/06/25 03:22:55;;;;;;;;;;;25.50;74.10;;;;;;7383853;19;19955;-75
2023/06/25 03:25:26;;;;;;;;;;;25.50;74.10;;;;;;7383469;19;19974;-75
2023/06/25 03:27:54;;;;;;;;;;;25.40;74.10;;;;;;7404315;19;19911;-75
2023/06/25 03:30:22;;;;;;;;;;;25.40;74.40;;;;;;7382117;19;19964;-75
2023/06/25 03:32:51;;;;;;;;;;;25.40;74.30;;;;;;7383740;19;19967;-75
2023/06/25 03:35:19;;;;;;;;;;;25.40;74.30;;;;;;7383648;19;19903;-76
2023/06/25 03:37:48;;;;;;;;;;;25.40;73.90;;;;;;7381566;19;20233;-76
2023/06/25 03:40:16;;;;;;;;;;;25.40;73.90;;;;;;7404589;19;19928;-76
2023/06/25 03:42:47;;;;;;;;;;;25.40;74.20;;;;;;7383973;19;19920;-76
2023/06/25 03:45:16;;;;;;;12.35;4.40;;;25.40;74.10;;;;;;7383883;19;19914;-76
2023/06/25 03:47:45;;;;;;;11.60;5.03;;;25.40;74.10;;;;;;7386014;19;20240;-75
2023/06/25 03:50:13;;;;;;;;;;;25.30;74.30;;;;;;7384078;19;20019;-76
2023/06/25 03:52:42;;;;;;;;;;;25.30;74.30;;;;;;7383736;19;19904;-75
2023/06/25 03:55:10;;;;;;;;;;;25.40;74.30;;;;;;7402189;19;20160;-75
2023/06/25 03:57:39;;;;;;;;;;;25.40;74.50;;;;;;7381472;19;20157;-76
2023/06/25 04:00:10;;;;;;;;;;;25.30;74.50;;;;;;7384147;19;20604;-76
2023/06/25 04:02:39;;;;;;;;;;;25.30;74.30;;;;;;7386542;19;19950;-76
2023/06/25 04:05:07;;;;;;;;;;;25.30;73.90;;;;;;7385921;19;19907;-76
2023/06/25 04:07:36;;;;;;;;;;;25.30;74.30;;;;;;7383537;19;19923;-76
2023/06/25 04:10:04;;;;;;;;;;;25.30;74.50;;;;;;7403951;19;19915;-76
2023/06/25 04:12:33;;;;;;;;;;;25.30;74.30;;;;;;7381426;19;19915;-75
2023/06/25 04:15:01;;;;;;;;;;;25.30;74.30;;;;;;7381482;19;19919;-76
2023/06/25 04:17:32;;;;;;;;;;;25.30;74.50;;;;;;7382065;19;19980;-76
2023/06/25 04:20:00;;;;;;;;;;;25.20;74.60;;;;;;7382217;19;19974;-75
2023/06/25 04:22:29;;;;;;;;;;;25.20;74.70;;;;;;7380246;19;19982;-75
2023/06/25 04:24:58;;;;;;;10.75;6.22;;;25.20;74.70;;;;;;7402549;19;19970;-75
2023/06/25 04:27:27;;;;;;;10.52;6.13;;;25.10;75.20;;;;;;7380106;19;20010;-76
2023/06/25 04:29:56;;;;;;;9.35;5.45;;;25.10;75.60;;;;;;7380781;19;20010;-75
2023/06/25 04:32:25;;;;;;;9.60;4.93;;;25.00;75.90;;;;;;7379781;19;20015;-76
2023/06/25 04:34:59;;;;;;;;;;;25.00;75.80;;;;;;7381518;19;20003;-75
2023/06/25 04:37:28;;;;;;;;;;;25.00;75.50;;;;;;7379237;19;20490;-76
2023/06/25 04:39:57;;;;;;;;;;;25.00;75.70;;;;;;7401382;19;19967;-76
2023/06/25 04:42:25;;;;;;;;;;;25.00;75.90;;;;;;7380954;19;20206;-75
2023/06/25 04:44:54;;;;;;;;;;;25.00;76.10;;;;;;7380889;19;20195;-75
2023/06/25 04:47:22;;;;;;;;;;;25.10;76.20;;;;;;7381498;19;19942;-76
2023/06/25 04:49:52;;;;;;;;;;;25.10;76.40;;;;;;7382964;19;19971;-76
2023/06/25 04:52:23;;;;;;;;;;;25.10;76.50;;;;;;7404601;19;19974;-75
2023/06/25 04:54:52;;;;;;;;;;;25.10;76.40;;;;;;7383627;19;19975;-75
2023/06/25 04:57:20;;;;;;;;;;;25.20;76.30;;;;;;7381048;19;19907;-75
2023/06/25 04:59:49;;;;;;;;;;;25.20;76.50;;;;;;7380498;19;19929;-76
2023/06/25 05:02:17;;;;;;;;;;;25.20;76.30;;;;;;7379894;19;19917;-76
2023/06/25 05:04:46;;;;;;;;;;;25.30;76.40;;;;;;7380541;19;19907;-76
2023/06/25 05:07:14;;;;;;;;;;;25.20;76.60;;;;;;7404264;19;20127;-76
2023/06/25 05:09:45;;;;;;;;;;;25.20;76.80;;;;;;7383423;19;19911;-76
2023/06/25 05:12:14;;;;;;;;;;;25.20;76.80;;;;;;7382285;19;19946;-75
2023/06/25 05:14:42;;;;;;;;;;;25.30;77.00;;;;;;7381903;19;19907;-75
2023/06/25 05:17:11;;;;;;;;;;;25.20;76.90;;;;;;7379894;19;19910;-75
2023/06/25 05:19:39;;;;;;;;;;;25.30;77.10;;;;;;7378599;19;19919;-75
2023/06/25 05:22:07;;;;;;;;;;;25.30;77.30;;;;;;7401509;19;19918;-76
2023/06/25 05:24:36;;;;;;;;;;;25.20;77.70;;;;;;7379246;19;19974;-75
2023/06/25 05:27:08;;;;;;;;;;;25.20;77.80;;;;;;7379485;19;19910;-75
2023/06/25 05:29:36;;;;;;;;;;;25.20;77.80;;;;;;7379388;19;19911;-75
2023/06/25 05:32:06;;;;;;;;;;;25.20;78.10;;;;;;7378585;19;19915;-75
2023/06/25 05:34:35;;;;;;;;;;;25.30;78.50;;;;;;7377635;19;19924;-75
2023/06/25 05:37:03;;;;;;;;;;;25.20;78.50;;;;;;7398647;19;19915;-75
2023/06/25 05:39:31;;;;;;;;;;;25.30;78.60;;;;;;7378854;19;19967;-75
2023/06/25 05:42:00;;;;;;;;;;;25.40;78.70;;;;;;7379359;19;19955;-76
2023/06/25 05:44:31;;;;;;;;;;;25.40;78.70;;;;;;7379337;19;19971;-76
2023/06/25 05:46:59;;;;;;;;;;;25.50;78.70;;;;;;7377699;19;19911;-76
2023/06/25 05:49:28;;;;;;;;;;;25.50;78.50;;;;;;7378953;19;19911;-76
2023/06/25 05:51:56;;;;;;;;;;;25.50;78.60;;;;;;7403823;19;19914;-76
2023/06/25 05:54:25;;;;;;;;;;;25.60;78.50;;;;;;7385627;19;20522;-76
2023/06/25 05:56:53;;;;;;;;;;;25.70;78.50;;;;;;7388099;19;20424;-76
2023/06/25 05:59:21;;;;;;;;;;;25.70;78.50;;;;;;7390953;19;19950;-76
2023/06/25 06:01:52;;;;;;;;;;;25.80;78.60;;;;;;7388891;19;19924;-76
2023/06/25 06:04:21;;;;;;;;;;;25.90;78.80;;;;;;7407867;19;19906;-75
2023/06/25 06:06:49;;;;;;;;;;;25.90;78.70;;;;;;7408230;19;19938;-75
2023/06/25 06:09:18;;;;;;;;;;;26.00;78.90;;;;;;7385900;19;19966;-76
2023/06/25 06:11:48;;;;;;;;;;;26.10;78.80;;;;;;7385205;19;19907;-76
2023/06/25 06:14:17;;;;;;;;;;;26.20;78.80;;;;;;7388513;19;19910;-75
2023/06/25 06:16:45;;;;;;;;;;;26.30;79.00;;;;;;7387002;19;19989;-76
2023/06/25 06:19:16;;;;;;;;;;;26.30;79.00;;;;;;7410596;19;19923;-76
2023/06/25 06:21:44;;;;;;;;;;;26.40;78.90;;;;;;7386428;19;19910;-76
2023/06/25 06:24:13;;;;;;;;;;;26.40;78.50;;;;;;7385440;19;19966;-75
2023/06/25 06:26:41;;;;;;;;;;;26.50;78.80;;;;;;7385627;19;19915;-75
2023/06/25 06:29:10;;;;;;;;;;;26.60;78.60;;;;;;7385290;19;19914;-75
2023/06/25 06:31:40;;;;;;;;;;;26.60;78.10;;;;;;7383256;19;19966;-75
2023/06/25 06:34:08;;;;;;;;;;;26.70;77.30;;;;;;7406760;19;20140;-75
2023/06/25 06:36:39;;;;;;;;;;;26.70;76.80;;;;;;7384519;19;19934;-76
2023/06/25 06:39:08;;;;;;;;;;;26.80;75.90;;;;;;7383758;19;19907;-76
2023/06/25 06:41:36;;;;;;;;;;;26.80;74.90;;;;;;7385242;19;19916;-76
2023/06/25 06:44:17;;;;;;;;;;;26.90;73.80;;;;;;7385381;19;19915;-76
2023/06/25 06:46:45;;;;;;;;;;;27.00;73.20;;;;;;7382712;19;20132;-76
2023/06/25 06:49:16;;;;;;;;;;;27.00;73.00;;;;;;7406014;19;19928;-76
2023/06/25 06:51:47;;;;;;;;;;;27.00;72.60;;;;;;7383222;19;20219;-75
2023/06/25 06:54:15;;;;;;;;;;;27.10;72.10;;;;;;7383486;19;19910;-76
2023/06/25 06:56:44;;;;;;;;;;;27.10;71.90;;;;;;7384387;19;19910;-76
2023/06/25 06:59:12;;;;;;;;;;;27.10;72.00;;;;;;7382558;19;19923;-74
2023/06/25 07:01:41;;;;;;;;;;;27.20;71.90;;;;;;7383096;19;20823;-74
2023/06/25 07:04:09;;;;;;;;;;;27.20;71.60;;;;;;7407356;19;19910;-75
2023/06/25 07:06:37;;;;;;;;;;;27.30;71.50;;;;;;7387258;19;19915;-74
2023/06/25 07:09:08;;;;;;;;;;;27.40;71.40;;;;;;7387468;19;19915;-74
2023/06/25 07:11:37;;;;;;;;;;;27.40;71.10;;;;;;7386404;19;19927;-74
2023/06/25 07:14:05;;;;;;;;;;;27.40;70.70;;;;;;7385355;19;19927;-74
2023/06/25 07:16:34;;;;;;;;;;;27.50;70.00;;;;;;7384909;19;19911;-75
2023/06/25 07:19:03;;;;;;;;;;;27.50;69.90;;;;;;7406221;19;19974;-74
2023/06/25 07:21:31;;;;;;;;;;;27.50;68.90;;;;;;7386048;19;20143;-75
2023/06/25 07:23:59;;;;;;;;;;;27.60;67.70;;;;;;7388108;19;19910;-75
2023/06/25 07:26:30;;;;;;;;;;;27.60;67.80;;;;;;7389834;19;19914;-75
2023/06/25 07:28:59;;;;;;;;;;;27.60;67.50;;;;;;7387272;19;20187;-75
2023/06/25 07:31:27;;;;;;;8.38;5.28;;;27.60;66.90;;;;;;7383362;19;19918;-74
2023/06/25 07:33:56;;;;;;;7.75;5.32;;;27.60;67.00;;;;;;7404803;19;20393;-75
2023/06/25 07:36:25;;;;;;;8.48;5.38;;;27.60;66.70;;;;;;7382939;19;20019;-75
2023/06/25 07:38:59;;;;;;;11.73;6.00;;;27.70;66.60;;;;;;7383058;19;20007;-74
2023/06/25 07:41:27;;;;;;;8.18;5.50;;;27.70;66.30;;;;;;7383531;19;20079;-74
2023/06/25 07:43:59;;;;;;;8.82;5.03;;;27.70;66.10;;;;;;7382424;19;20070;-74
2023/06/25 07:46:27;;;;;;;8.95;5.75;;;27.80;66.50;;;;;;7380430;19;20010;-74
2023/06/25 07:48:56;;;;;;;12.40;5.35;;;27.80;67.80;;;;;;7400928;19;20003;-74
2023/06/25 07:51:25;;;;;;;8.32;4.95;;;27.80;66.90;;;;;;7380118;19;20010;-75
2023/06/25 07:53:54;;;;;;;10.88;5.43;;;27.90;66.90;;;;;;7381343;19;20003;-75
2023/06/25 07:56:22;;;;;;;10.90;5.68;;;27.90;67.50;;;;;;7381258;19;20007;-74
2023/06/25 07:58:51;;;;;;;8.27;5.57;;;27.90;66.50;;;;;;7381872;19;20065;-75
2023/06/25 08:01:23;;;;;;;6.80;5.22;;;27.90;66.50;;;;;;7401641;19;20015;-75
2023/06/25 08:03:56;;;;;;;10.23;5.78;;;27.90;66.60;;;;;;7381160;19;20009;-75
2023/06/25 08:06:25;;;;;;;8.95;5.38;;;28.00;66.90;;;;;;7381547;19;20035;-75
2023/06/25 08:08:54;;;;;;;7.90;5.35;;;28.00;66.90;;;;;;7381189;19;20017;-75
2023/06/25 08:11:23;;;;;;;9.68;5.35;;;28.10;67.70;;;;;;7383054;19;20016;-75
2023/06/25 08:13:51;;;;;;;7.50;5.50;;;28.10;67.50;;;;;;7383219;19;20064;-75
2023/06/25 08:16:23;;;;;;;7.22;5.50;;;28.10;67.20;;;;;;7407352;19;20011;-75
2023/06/25 08:18:51;;;;;;;10.05;6.15;;;28.10;67.40;;;;;;7383787;19;20011;-75
2023/06/25 08:21:20;;;;;;;8.77;5.25;;;28.20;67.30;;;;;;7379952;19;20444;-75
2023/06/25 08:23:49;;;;;;;12.80;5.13;;;28.20;67.60;;;;;;7381055;19;20052;-75
2023/06/25 08:26:17;;;;;;;8.48;5.57;;;28.20;67.90;;;;;;7381368;19;20075;-75
2023/06/25 08:28:46;;;;;;;8.55;5.78;;;28.30;67.70;;;;;;7383067;19;20007;-75
2023/06/25 08:31:15;;;;;;;11.98;5.30;;;28.30;67.20;;;;;;7405233;19;20060;-74
2023/06/25 08:33:47;;;;;;;9.02;5.50;;;28.30;67.50;;;;;;7380302;19;20042;-75
2023/06/25 08:36:16;;;;;;;7.25;5.00;;;28.30;67.00;;;;;;7379376;19;20307;-75
2023/06/25 08:38:47;;;;;;;8.13;5.75;;;28.40;67.10;;;;;;7380179;19;20019;-75
2023/06/25 08:41:16;;;;;;;9.10;5.40;;;28.40;67.20;;;;;;7378706;19;20006;-75
2023/06/25 08:43:44;;;;;;;8.48;5.80;;;28.50;66.60;;;;;;7379608;19;20007;-76
2023/06/25 08:46:14;;;;;;;9.18;5.38;;;28.50;65.70;;;;;;7399461;19;20074;-75
2023/06/25 08:48:42;;;;;;;10.40;5.72;;;28.50;65.30;;;;;;7378855;19;20002;-75
2023/06/25 08:51:20;;;;;;;10.68;5.18;;;28.50;65.30;;;;;;7376413;19;20002;-75
2023/06/25 08:53:48;;;;;;;9.38;5.70;;;28.50;65.10;;;;;;7378442;19;20002;-75
2023/06/25 08:56:19;;;;;;;9.80;5.35;;;28.60;64.90;;;;;;7377862;19;20280;-75
2023/06/25 08:58:47;;;;;;;9.25;5.40;;;28.60;65.20;;;;;;7379100;19;20388;-76
2023/06/25 09:01:18;;;;;;;8.88;5.60;;;28.60;65.50;;;;;;7400447;19;20074;-75
2023/06/25 09:03:47;;;;;;;8.33;5.40;;;28.70;64.90;;;;;;7378675;19;20002;-75
2023/06/25 09:06:19;;;;;;;7.75;5.38;;;28.70;64.30;;;;;;7378444;19;20002;-77
2023/06/25 09:08:52;;;;;;;8.93;5.70;;;28.70;64.40;;;;;;7381904;19;20006;-79
2023/06/25 09:17:56;;;;;;;11.40;5.32;;;28.70;64.30;;;;;;7385858;19;20114;-80
2023/06/25 09:27:28;;;;;;;7.95;5.32;;;28.90;64.50;;;;;;7406458;19;20011;-80
2023/06/25 09:30:17;;;;;;;7.25;4.97;;;28.90;63.60;;;;;;7381832;19;19999;-82
2023/06/25 09:32:54;;;;;;;7.03;5.45;;;28.90;62.40;;;;;;7379816;19;20386;-77
2023/06/25 09:35:25;;;;;;;8.20;5.70;;;28.90;60.80;;;;;;7384072;19;20012;-79
2023/06/25 09:37:55;;;;;;;8.52;5.70;;;29.00;61.30;;;;;;7385021;19;20003;-77
2023/06/25 09:40:24;;;;;;;8.88;5.18;;;29.00;61.90;;;;;;7382684;19;19999;-76
2023/06/25 09:42:59;;;;;;;6.20;5.03;;;29.10;61.80;;;;;;7396860;19;20066;-79
2023/06/25 09:45:29;;;;;;;6.80;5.13;;;29.00;62.00;;;;;;7374633;19;20066;-75
2023/06/25 09:47:59;;;;;;;9.17;4.80;;;29.10;62.30;;;;;;7375093;19;20074;-76
2023/06/25 09:50:30;;;;;;;7.47;5.38;;;29.10;61.60;;;;;;7375685;19;20266;-75
2023/06/25 09:59:47;;;;;;;9.68;5.07;;;29.30;60.60;;;;;;7418858;19;20021;-78
2023/06/25 10:02:19;;;;;;;10.13;6.25;;;29.30;60.20;;;;;;7418818;19;20027;-79
2023/06/25 10:04:50;;;;;;;7.72;4.63;;;29.40;59.30;;;;;;7422107;19;20027;-78
2023/06/25 10:07:23;;;;;;;9.55;5.43;;;29.40;57.00;;;;;;7440446;19;20007;-78
2023/06/25 10:09:55;;;;;;;7.63;4.43;;;29.40;57.30;;;;;;7416481;19;20002;-78
2023/06/25 10:12:27;;;;;;;11.88;4.97;;;29.40;57.40;;;;;;7419033;19;20010;-81
2023/06/25 10:14:58;;;;;;;6.43;4.40;;;29.40;57.20;;;;;;7416168;19;20153;-81
2023/06/25 10:17:37;;;;;;;14.70;5.00;;;29.30;56.20;;;;;;7418130;19;20002;-81
2023/06/25 10:20:07;;;;;;;9.02;5.05;;;29.40;56.70;;;;;;7416050;19;20010;-77
2023/06/25 10:22:38;;;;;;;14.70;5.60;;;29.40;56.80;;;;;;7413198;19;20054;-75
2023/06/25 10:25:07;;;;;;;8.57;4.57;;;29.60;56.80;;;;;;7437166;19;20002;-74
2023/06/25 10:27:40;;;;;;;7.22;4.75;;;29.60;55.70;;;;;;7417382;19;20023;-74
2023/06/25 10:30:17;;;;;;;6.53;5.18;;;29.60;55.70;;;;;;7416904;19;20388;-75
2023/06/25 10:32:47;;;;;;;6.72;4.45;;;29.60;55.10;;;;;;7418739;19;20007;-77
2023/06/25 10:35:23;;;;;;;5.87;4.30;;;29.70;55.50;;;;;;7418891;19;20021;-78
2023/06/25 10:37:51;;;;;;;9.25;4.78;;;29.70;55.50;;;;;;7415804;19;20040;-74
2023/06/25 10:40:20;;;;;;;10.93;5.00;;;29.80;55.40;;;;;;7439223;19;20006;-77
2023/06/25 10:42:53;;;;;;;6.00;4.72;;;29.90;55.50;;;;;;7418523;19;20014;-79
2023/06/25 10:45:26;;;;;;;8.77;5.18;;;29.90;55.60;;;;;;7417160;19;20006;-76
2023/06/25 10:48:06;;;;;;;9.88;5.25;;;29.90;55.80;;;;;;7420136;19;20016;-76
2023/06/25 10:50:35;;;;;;;6.85;5.32;;;30.00;56.10;;;;;;7418546;19;20018;-73
2023/06/25 10:53:04;;;;;;;7.53;4.97;;;30.00;56.10;;;;;;7420383;19;20015;-77
2023/06/25 10:55:45;;;;;;;7.50;5.18;;;30.10;55.00;;;;;;7418907;19;20022;-77
2023/06/25 10:58:20;;;;;;;8.55;4.90;;;30.10;55.10;;;;;;7444004;19;20014;-78
2023/06/25 11:03:50;;;;;;;5.65;4.53;;;30.30;53.80;;;;;;7428328;19;20082;-80
2023/06/25 11:06:19;;;;;;;6.68;4.70;;;30.30;53.60;;;;;;7409248;19;20019;-78
2023/06/25 11:08:56;;;;;;;6.72;4.95;;;30.40;53.90;;;;;;7414620;19;20019;-79
2023/06/25 11:11:26;;;;;;;17.65;4.95;;;30.50;54.60;;;;;;7401287;19;20014;-78
2023/06/25 11:14:03;;;;;;;7.50;5.10;;;30.50;54.40;;;;;;7400473;19;20053;-79
2023/06/25 11:16:31;;;;;;;;;;;30.60;54.50;;;;;;7391152;19;20047;-75
2023/06/25 11:19:02;;;;;;;;;;;30.70;54.90;;;;;;7412772;19;19919;-77
2023/06/25 11:21:35;;;;;;;;;;;30.70;54.50;;;;;;7389737;19;19919;-76
2023/06/25 11:24:10;;;;;;;;;;;30.80;55.10;;;;;;7394096;19;19906;-76
2023/06/25 11:26:42;;;;;;;;;;;30.80;54.40;;;;;;7397099;19;20143;-74
2023/06/25 11:29:27;;;;;;;;;;;30.80;53.60;;;;;;7390935;19;20275;-78
2023/06/25 11:32:00;;;;;;;;;;;30.80;53.70;;;;;;7395337;19;19915;-78
2023/06/25 11:34:29;;;;;;;;;;;30.80;53.90;;;;;;7393745;19;19906;-79
2023/06/25 11:36:57;;;;;;;;;;;30.80;53.70;;;;;;7417790;19;19926;-76
2023/06/25 11:39:26;;;;;;;;;;;30.80;53.80;;;;;;7390698;19;19914;-78
2023/06/25 11:41:59;;;;;;;;;;;31.00;54.60;;;;;;7401129;19;19915;-79
2023/06/25 11:44:27;;;;;;;;;;;31.00;54.80;;;;;;7400258;19;19934;-76
2023/06/25 11:58:17;;;;;;;;;;;31.30;54.10;;;;;;7415243;19;19911;-80
2023/06/25 12:21:35;;;;;;;;;;;31.70;53.50;;;;;;7410116;19;19991;-80
2023/06/25 12:27:22;;;;;;;;;;;31.90;52.90;;;;;;7386181;19;19910;-81
2023/06/25 12:29:52;;;;;;;;;;;32.00;53.00;;;;;;7388397;19;19934;-76
2023/06/25 12:32:25;;;;;;;;;;;32.00;52.10;;;;;;7387496;19;19926;-76
2023/06/25 12:34:56;;;;;;;;;;;32.00;52.40;;;;;;7386746;19;19987;-77
2023/06/25 12:37:26;;;;;;;;;;;32.10;52.60;;;;;;7391782;19;19915;-79
2023/06/25 12:39:54;;;;;;;;;;;32.20;52.60;;;;;;7409417;19;19927;-77
2023/06/25 12:42:29;;;;;;;;;;;32.20;52.20;;;;;;7384439;19;20006;-77
2023/06/25 12:45:00;;;;;;;;;;;32.20;51.70;;;;;;7390500;19;19919;-79
2023/06/25 12:50:49;;;;;;;;;;;32.30;52.10;;;;;;7387095;19;19915;-82
2023/06/25 12:53:17;;;;;;;;;;;32.40;52.60;;;;;;7387555;19;19947;-79
2023/06/25 12:55:49;;;;;;;;;;;32.40;51.40;;;;;;7409561;19;19919;-80
2023/06/25 12:58:28;;;;;;;;;;;32.40;51.60;;;;;;7289060;19;2004148;-80
2023/06/25 13:01:14;;;;;;;;;;;32.40;51.50;;;;;;7412088;19;19911;-79
2023/06/25 13:03:42;;;;;;;;;;;32.40;50.80;;;;;;7393038;19;19967;-79
2023/06/25 13:06:16;;;;;;;;;;;32.30;50.60;;;;;;7392871;19;19907;-79
2023/06/25 13:08:45;;;;;;;;;;;32.40;50.60;;;;;;7389785;19;19914;-78
2023/06/25 13:14:17;;;;;;;;;;;32.60;51.00;;;;;;7389992;19;20254;-79
2023/06/25 13:16:49;;;;;;;;;;;32.70;50.30;;;;;;7388249;19;19925;-77
2023/06/25 13:19:17;;;;;;;;;;;32.80;50.10;;;;;;7406332;19;19970;-76
2023/06/25 13:21:49;;;;;;;;;;;32.80;49.50;;;;;;7388549;19;19937;-77
2023/06/25 13:24:17;;;;;;;;;;;32.90;48.50;;;;;;7387358;19;19914;-77
2023/06/25 13:26:51;;;;;;;;;;;32.90;48.50;;;;;;7388087;19;19928;-77
2023/06/25 13:29:19;;;;;;;;;;;33.00;49.00;;;;;;7389980;19;19911;-77
2023/06/25 13:31:49;;;;;;;;;;;33.00;48.70;;;;;;7391166;19;19916;-77
2023/06/25 13:34:17;;;;;;;;;;;33.10;49.30;;;;;;7410977;19;19911;-77
2023/06/25 13:36:49;;;;;;;;;;;33.20;48.10;;;;;;7385200;19;19915;-77
2023/06/25 13:39:18;;;;;;;;;;;33.20;48.70;;;;;;7385981;19;19919;-77
2023/06/25 13:41:46;;;;;;;;;;;33.20;48.80;;;;;;7390027;19;19965;-79
2023/06/25 13:44:15;;;;;;;;;;;33.30;49.50;;;;;;7391091;19;19919;-77
2023/06/25 13:46:43;;;;;;;;;;;33.30;49.30;;;;;;7388653;19;20238;-78
2023/06/25 13:49:12;;;;;;;;;;;33.40;47.90;;;;;;7415549;19;19935;-78
2023/06/25 13:51:40;;;;;;;;;;;33.40;48.50;;;;;;7390585;19;19978;-76
2023/06/25 13:54:11;;;;;;;;;;;33.50;48.60;;;;;;7390478;19;19914;-77
2023/06/25 13:56:40;;;;;;;;;;;33.60;48.10;;;;;;7401765;19;19911;-76
2023/06/25 13:59:08;;;;;;;;;;;33.70;48.60;;;;;;7397277;19;19911;-76
2023/06/25 14:01:39;;;;;;;;;;;33.70;47.20;;;;;;7395222;19;20140;-75
2023/06/25 14:04:07;;;;;;;;;;;33.80;48.10;;;;;;7420887;19;19935;-76
2023/06/25 14:06:36;;;;;;;;;;;33.80;46.20;;;;;;7396320;19;19915;-76
2023/06/25 14:09:05;;;;;;;;;;;33.90;47.50;;;;;;7396918;19;19911;-76
2023/06/25 14:11:36;;;;;;;;;;;33.90;47.90;;;;;;7394970;19;19931;-76
2023/06/25 14:14:04;;;;;;;;;;;33.90;48.20;;;;;;7397430;19;20311;-77
2023/06/25 14:16:33;;;;;;;;;;;33.90;47.00;;;;;;7396269;19;19928;-77
2023/06/25 14:19:02;;;;;;;;;;;33.90;47.70;;;;;;7420426;19;19918;-77
2023/06/25 14:21:30;;;;;;;;;;;33.90;47.30;;;;;;7397187;19;20154;-77
2023/06/25 14:23:59;;;;;;;;;;;33.90;47.20;;;;;;7397458;19;19907;-76
2023/06/25 14:26:27;;;;;;;;;;;33.80;47.40;;;;;;7396548;19;19911;-77
2023/06/25 14:28:58;;;;;;;;;;;33.90;47.40;;;;;;7398435;19;20179;-78
2023/06/25 14:31:27;;;;;;;;;;;33.90;47.50;;;;;;7395939;19;19939;-77
2023/06/25 14:33:55;;;;;;;;;;;34.10;47.60;;;;;;7418254;19;19942;-77
2023/06/25 14:36:24;;;;;;;;;;;34.10;47.30;;;;;;7398257;19;20248;-77
2023/06/25 14:38:52;;;;;;;;;;;34.20;46.90;;;;;;7398050;19;19918;-76
2023/06/25 14:41:20;;;;;;;;;;;34.20;46.60;;;;;;7397660;19;19911;-77
2023/06/25 14:43:49;;;;;;;;;;;34.20;46.60;;;;;;7400211;19;19952;-77
2023/06/25 14:46:20;;;;;;;;;;;34.10;46.40;;;;;;7422104;19;19910;-77
2023/06/25 14:48:49;;;;;;;;;;;34.10;47.20;;;;;;7403633;19;19923;-76
2023/06/25 14:51:18;;;;;;;;;;;34.20;47.20;;;;;;7403022;19;19911;-76
2023/06/25 14:53:46;;;;;;;;;;;34.10;47.80;;;;;;7405331;19;19931;-78
2023/06/25 14:56:15;;;;;;;;;;;34.20;46.50;;;;;;7403886;19;19918;-78
2023/06/25 14:58:44;;;;;;;;;;;34.30;47.10;;;;;;7407018;19;19935;-76
2023/06/25 15:01:12;;;;;;;;;;;34.40;47.30;;;;;;7423966;19;19926;-77
2023/06/25 15:03:43;;;;;;;;;;;34.50;46.40;;;;;;7402918;19;19923;-77
2023/06/25 15:06:11;;;;;;;;;;;34.50;46.60;;;;;;7406743;19;19924;-77
2023/06/25 15:08:40;;;;;;;;;;;34.60;46.80;;;;;;7402397;19;19976;-77